Time;durP1;ratioP1;P1;durP2;ratioP2;P2;SDS_P1;SDS_P2;PMS_P1;PMS_P2;Temp;Humidity;BMP_temperature;BMP_pressure;BME280_temperature;BME280_humidity;BME280_pressure;Samples;Min_cycle;Max_cycle;Signal;HPM_P1;HPM_P2
2023/09/28 00:01:18;;;;;;;4.43;3.70;;;;;;;;;;5085970;28;20736;-88
2023/09/28 00:03:47;;;;;;;6.03;4.30;;;;;;;;;;5096354;28;20686;-87
2023/09/28 00:06:13;;;;;;;6.33;4.27;;;;;;;;;;5096337;28;20225;-88
2023/09/28 00:08:40;;;;;;;4.30;3.90;;;;;;;;;;5095733;28;20257;-87
2023/09/28 00:11:07;;;;;;;4.40;4.00;;;;;;;;;;5096427;28;20234;-87
2023/09/28 00:13:34;;;;;;;4.00;3.60;;;;;;;;;;5097128;28;20612;-87
2023/09/28 00:16:02;;;;;;;6.50;3.67;;;;;;;;;;5095825;28;20228;-87
2023/09/28 00:18:29;;;;;;;3.67;3.33;;;;;;;;;;5096507;28;20283;-87
2023/09/28 00:20:56;;;;;;;3.83;3.33;;;;;;;;;;5095707;28;20232;-87
2023/09/28 00:23:22;;;;;;;3.53;3.20;;;;;;;;;;5096807;28;20204;-87
2023/09/28 00:25:49;;;;;;;6.73;3.60;;;;;;;;;;5096268;28;20300;-87
2023/09/28 00:28:16;;;;;;;4.00;3.40;;;;;;;;;;5096925;28;20268;-87
2023/09/28 00:30:44;;;;;;;4.17;3.57;;;;;;;;;;5095430;28;20260;-87
2023/09/28 00:33:12;;;;;;;6.83;4.10;;;;;;;;;;5095955;28;20208;-87
2023/09/28 00:35:38;;;;;;;4.03;3.50;;;;;;;;;;5094861;28;20236;-87
2023/09/28 00:38:07;;;;;;;3.73;3.43;;;;;;;;;;5096301;28;20230;-87
2023/09/28 00:40:33;;;;;;;5.77;3.97;;;;;;;;;;5098614;28;20260;-87
2023/09/28 00:43:00;;;;;;;4.40;4.00;;;;;;;;;;5100477;28;20250;-87
2023/09/28 00:45:27;;;;;;;5.13;3.70;;;;;;;;;;5102539;28;20232;-88
2023/09/28 00:47:55;;;;;;;4.57;4.17;;;;;;;;;;5102372;28;20205;-87
2023/09/28 00:50:23;;;;;;;4.10;3.70;;;;;;;;;;5100889;28;20236;-87
2023/09/28 00:52:51;;;;;;;4.20;3.80;;;;;;;;;;5101265;28;20205;-87
2023/09/28 00:55:19;;;;;;;3.90;3.60;;;;;;;;;;5101026;28;20239;-87
2023/09/28 00:57:47;;;;;;;4.50;4.20;;;;;;;;;;5101329;28;20916;-88
2023/09/28 01:00:18;;;;;;;3.97;3.50;;;;;;;;;;5100118;28;20235;-88
2023/09/28 01:02:45;;;;;;;4.37;3.97;;;;;;;;;;5099948;28;20227;-87
2023/09/28 01:05:13;;;;;;;3.90;3.50;;;;;;;;;;5099913;28;20232;-87
2023/09/28 01:07:41;;;;;;;3.73;3.40;;;;;;;;;;5066527;28;20233;-87
2023/09/28 01:10:09;;;;;;;5.13;3.80;;;;;;;;;;5059859;28;20238;-87
2023/09/28 01:12:38;;;;;;;4.10;3.70;;;;;;;;;;5060105;28;20202;-87
2023/09/28 01:15:06;;;;;;;7.50;3.83;;;;;;;;;;5059524;28;20238;-87
2023/09/28 01:17:32;;;;;;;9.93;3.90;;;;;;;;;;5057531;28;20202;-87
2023/09/28 01:19:59;;;;;;;3.50;3.20;;;;;;;;;;5056449;28;20233;-87
2023/09/28 01:22:27;;;;;;;5.10;3.60;;;;;;;;;;5057321;28;20213;-87
2023/09/28 01:24:54;;;;;;;3.97;3.47;;;;;;;;;;5056467;28;20241;-87
2023/09/28 01:27:20;;;;;;;7.37;3.63;;;;;;;;;;5057011;28;20225;-87
2023/09/28 01:29:47;;;;;;;4.43;4.00;;;;;;;;;;5056571;28;20241;-87
2023/09/28 01:32:13;;;;;;;5.33;4.00;;;;;;;;;;5057021;28;20209;-88
2023/09/28 01:34:40;;;;;;;4.23;3.83;;;;;;;;;;5056033;28;20699;-87
2023/09/28 01:37:08;;;;;;;4.47;3.83;;;;;;;;;;5055469;28;20230;-87
2023/09/28 01:39:38;;;;;;;7.37;4.17;;;;;;;;;;5055309;28;20238;-88
2023/09/28 01:42:04;;;;;;;4.20;3.80;;;;;;;;;;5056781;28;20205;-87
2023/09/28 01:44:31;;;;;;;8.53;4.30;;;;;;;;;;5056170;28;20229;-87
2023/09/28 01:46:57;;;;;;;4.30;3.90;;;;;;;;;;5056456;28;20599;-87
2023/09/28 01:49:24;;;;;;;4.80;4.17;;;;;;;;;;5055917;28;20284;-87
2023/09/28 01:51:50;;;;;;;6.27;4.17;;;;;;;;;;5055446;28;20209;-88
2023/09/28 01:54:17;;;;;;;5.00;3.97;;;;;;;;;;5056223;28;20234;-88
2023/09/28 01:56:45;;;;;;;4.30;3.77;;;;;;;;;;5056928;28;20213;-88
2023/09/28 01:59:12;;;;;;;5.63;4.40;;;;;;;;;;5055595;28;20232;-88
2023/09/28 02:01:38;;;;;;;5.10;4.00;;;;;;;;;;5081989;28;20201;-88
2023/09/28 02:04:05;;;;;;;4.57;4.07;;;;;;;;;;5096430;28;20279;-88
2023/09/28 02:06:32;;;;;;;5.40;4.23;;;;;;;;;;5096597;28;20701;-88
2023/09/28 02:08:59;;;;;;;4.50;4.10;;;;;;;;;;5096004;28;20236;-88
2023/09/28 02:11:25;;;;;;;4.53;4.13;;;;;;;;;;5096655;28;20807;-88
2023/09/28 02:13:54;;;;;;;4.50;4.10;;;;;;;;;;5096088;28;20228;-88
2023/09/28 02:16:20;;;;;;;7.70;4.17;;;;;;;;;;5096605;28;20201;-88
2023/09/28 02:18:47;;;;;;;5.73;4.90;;;;;;;;;;5096167;28;20571;-88
2023/09/28 02:21:14;;;;;;;7.47;4.13;;;;;;;;;;5096453;28;20726;-88
2023/09/28 02:23:41;;;;;;;7.53;4.33;;;;;;;;;;5096131;28;20195;-88
2023/09/28 02:26:07;;;;;;;4.33;3.37;;;;;;;;;;5096388;28;20192;-88
2023/09/28 02:28:35;;;;;;;5.30;4.43;;;;;;;;;;5096312;28;20209;-88
2023/09/28 02:31:06;;;;;;;5.47;4.10;;;;;;;;;;5095094;28;20229;-88
2023/09/28 02:33:33;;;;;;;4.43;4.03;;;;;;;;;;5095148;28;20219;-88
2023/09/28 02:36:00;;;;;;;4.47;3.90;;;;;;;;;;5094121;28;20228;-88
2023/09/28 02:38:27;;;;;;;6.03;3.87;;;;;;;;;;5095890;28;20232;-88
2023/09/28 02:40:53;;;;;;;4.30;3.90;;;;;;;;;;5095681;28;20240;-88
2023/09/28 02:43:20;;;;;;;4.47;3.90;;;;;;;;;;5096088;28;20613;-88
2023/09/28 02:45:46;;;;;;;5.40;4.07;;;;;;;;;;5095146;28;20577;-88
2023/09/28 02:48:15;;;;;;;5.27;4.07;;;;;;;;;;5095642;28;20782;-88
2023/09/28 02:50:41;;;;;;;4.20;3.63;;;;;;;;;;5094981;28;20253;-88
2023/09/28 02:53:09;;;;;;;4.97;4.07;;;;;;;;;;5095716;28;20204;-88
2023/09/28 02:55:36;;;;;;;4.00;3.70;;;;;;;;;;5095148;28;20259;-88
2023/09/28 02:58:03;;;;;;;4.00;3.60;;;;;;;;;;5095820;28;20250;-88
2023/09/28 03:00:32;;;;;;;4.20;3.90;;;;;;;;;;5094928;28;20293;-88
2023/09/28 03:03:06;;;;;;;5.60;4.40;;;;;;;;;;5095267;28;20200;-88
2023/09/28 03:05:34;;;;;;;6.40;3.57;;;;;;;;;;5094909;28;20236;-88
2023/09/28 03:08:04;;;;;;;4.43;4.03;;;;;;;;;;5095520;28;20267;-88
2023/09/28 03:10:31;;;;;;;4.73;4.33;;;;;;;;;;5094792;28;20236;-88
2023/09/28 03:12:58;;;;;;;4.20;3.73;;;;;;;;;;5095708;28;20236;-88
2023/09/28 03:15:25;;;;;;;4.20;3.80;;;;;;;;;;5094718;28;20243;-88
2023/09/28 03:17:51;;;;;;;4.20;3.90;;;;;;;;;;5095545;28;20220;-88
2023/09/28 03:20:21;;;;;;;6.47;4.43;;;;;;;;;;5094469;28;20709;-87
2023/09/28 03:22:49;;;;;;;5.57;4.67;;;;;;;;;;5095246;28;20239;-88
2023/09/28 03:25:16;;;;;;;6.60;4.57;;;;;;;;;;5094413;28;20725;-87
2023/09/28 03:27:43;;;;;;;5.30;4.77;;;;;;;;;;5095240;28;20253;-88
2023/09/28 03:30:11;;;;;;;4.73;4.23;;;;;;;;;;5094285;28;20713;-88
2023/09/28 03:32:37;;;;;;;6.57;4.90;;;;;;;;;;5094918;28;20200;-88
2023/09/28 03:35:05;;;;;;;5.87;4.70;;;;;;;;;;5093711;28;20224;-88
2023/09/28 03:37:32;;;;;;;6.20;4.97;;;;;;;;;;5093832;28;20204;-87
2023/09/28 03:40:09;;;;;;;5.77;5.23;;;;;;;;;;5093388;28;20236;-87
2023/09/28 03:42:37;;;;;;;7.77;5.23;;;;;;;;;;5093853;28;20639;-88
2023/09/28 03:45:04;;;;;;;7.43;5.13;;;;;;;;;;5093925;28;20315;-87
2023/09/28 03:47:32;;;;;;;6.07;5.47;;;;;;;;;;5094413;28;20658;-88
2023/09/28 03:49:59;;;;;;;9.90;5.07;;;;;;;;;;5093824;28;20282;-88
2023/09/28 03:52:26;;;;;;;10.77;4.97;;;;;;;;;;5095141;28;20201;-88
2023/09/28 03:54:53;;;;;;;7.23;5.23;;;;;;;;;;5094426;28;20236;-88
2023/09/28 03:57:22;;;;;;;11.53;5.37;;;;;;;;;;5094754;28;20199;-88
2023/09/28 03:59:49;;;;;;;5.30;4.80;;;;;;;;;;5094256;28;20244;-87
2023/09/28 04:02:16;;;;;;;7.03;5.23;;;;;;;;;;5083376;28;20221;-88
2023/09/28 04:04:44;;;;;;;6.00;4.40;;;;;;;;;;5074550;28;20237;-88
2023/09/28 04:07:11;;;;;;;5.87;4.97;;;;;;;;;;5074922;28;20244;-87
2023/09/28 04:09:38;;;;;;;6.03;4.77;;;;;;;;;;5073959;28;20236;-88
2023/09/28 04:12:05;;;;;;;6.27;5.07;;;;;;;;;;5075446;28;20213;-88
2023/09/28 04:14:34;;;;;;;5.63;4.87;;;;;;;;;;5076095;28;20237;-89
2023/09/28 04:17:01;;;;;;;9.07;5.03;;;;;;;;;;5080520;28;20206;-88
2023/09/28 04:19:28;;;;;;;6.03;5.03;;;;;;;;;;5080651;28;20240;-88
2023/09/28 04:21:55;;;;;;;5.77;5.13;;;;;;;;;;5080846;28;20236;-88
2023/09/28 04:24:22;;;;;;;5.97;5.03;;;;;;;;;;5080455;28;20232;-87
2023/09/28 04:26:50;;;;;;;6.17;5.03;;;;;;;;;;5080996;28;20215;-86
2023/09/28 04:29:18;;;;;;;5.67;5.17;;;;;;;;;;5079575;28;20237;-88
2023/09/28 04:31:46;;;;;;;9.83;5.27;;;;;;;;;;5080366;28;20312;-87
2023/09/28 04:34:15;;;;;;;6.30;5.33;;;;;;;;;;5080396;28;20252;-88
2023/09/28 04:36:43;;;;;;;5.23;4.73;;;;;;;;;;5079463;28;20288;-87
2023/09/28 04:39:11;;;;;;;5.70;4.73;;;;;;;;;;5077979;28;20231;-86
2023/09/28 04:41:38;;;;;;;7.43;5.53;;;;;;;;;;5079522;28;20288;-87
2023/09/28 04:44:06;;;;;;;6.83;4.97;;;;;;;;;;5079980;28;20239;-87
2023/09/28 04:46:33;;;;;;;10.33;5.83;;;;;;;;;;5081776;28;20212;-88
2023/09/28 04:49:02;;;;;;;6.50;5.53;;;;;;;;;;5079090;28;20643;-87
2023/09/28 04:51:29;;;;;;;6.77;5.73;;;;;;;;;;5078883;28;20213;-88
2023/09/28 04:53:56;;;;;;;5.73;5.13;;;;;;;;;;5078154;28;20335;-87
2023/09/28 04:56:24;;;;;;;11.10;6.00;;;;;;;;;;5078637;28;20212;-87
2023/09/28 04:58:51;;;;;;;6.67;5.20;;;;;;;;;;5082261;28;20205;-88
2023/09/28 05:01:18;;;;;;;9.70;6.40;;;;;;;;;;5084351;28;20227;-86
2023/09/28 05:03:45;;;;;;;6.53;5.90;;;;;;;;;;5083303;28;20689;-87
2023/09/28 05:06:13;;;;;;;5.87;5.07;;;;;;;;;;5083435;28;20194;-86
2023/09/28 05:08:41;;;;;;;8.63;5.80;;;;;;;;;;5080849;28;20253;-87
2023/09/28 05:11:08;;;;;;;6.03;5.30;;;;;;;;;;5081050;28;20221;-87
2023/09/28 05:13:36;;;;;;;10.10;5.40;;;;;;;;;;5078759;28;20210;-87
2023/09/28 05:16:03;;;;;;;6.07;4.87;;;;;;;;;;5078560;28;20206;-86
2023/09/28 05:18:30;;;;;;;5.30;4.80;;;;;;;;;;5077211;28;20202;-87
2023/09/28 05:20:57;;;;;;;7.33;4.97;;;;;;;;;;5076669;28;20245;-86
2023/09/28 05:23:26;;;;;;;6.57;4.97;;;;;;;;;;5077401;28;20194;-87
2023/09/28 05:25:53;;;;;;;10.43;5.40;;;;;;;;;;5076669;28;20314;-87
2023/09/28 05:28:20;;;;;;;6.43;4.27;;;;;;;;;;5077794;28;20209;-87
2023/09/28 05:30:48;;;;;;;8.23;4.60;;;;;;;;;;5076892;28;20233;-87
2023/09/28 05:33:16;;;;;;;8.47;5.17;;;;;;;;;;5078194;28;20270;-86
2023/09/28 05:35:43;;;;;;;10.67;4.87;;;;;;;;;;5078459;28;20592;-86
2023/09/28 05:38:10;;;;;;;8.70;5.43;;;;;;;;;;5079825;28;20204;-88
2023/09/28 05:40:39;;;;;;;5.97;4.90;;;;;;;;;;5079738;28;20241;-87
2023/09/28 05:43:06;;;;;;;5.33;4.47;;;;;;;;;;5078647;28;20582;-87
2023/09/28 05:45:33;;;;;;;5.83;4.90;;;;;;;;;;5078747;28;20243;-87
2023/09/28 05:48:01;;;;;;;6.53;4.90;;;;;;;;;;5077562;28;20694;-87
2023/09/28 05:50:28;;;;;;;5.53;4.93;;;;;;;;;;5076156;28;20233;-86
2023/09/28 05:52:56;;;;;;;6.07;4.83;;;;;;;;;;5076887;28;20197;-86
2023/09/28 05:55:24;;;;;;;7.33;5.20;;;;;;;;;;5077093;28;20240;-87
2023/09/28 05:57:53;;;;;;;6.43;5.03;;;;;;;;;;5077197;28;20212;-86
2023/09/28 06:00:20;;;;;;;5.60;5.00;;;;;;;;;;5076190;28;20237;-85
2023/09/28 06:02:48;;;;;;;6.43;5.20;;;;;;;;;;5076766;28;20205;-87
2023/09/28 06:05:15;;;;;;;6.47;4.83;;;;;;;;;;5076632;28;20320;-87
2023/09/28 06:07:42;;;;;;;5.93;5.00;;;;;;;;;;5076883;28;20695;-86
2023/09/28 06:10:10;;;;;;;6.57;5.43;;;;;;;;;;5077270;28;20232;-87
2023/09/28 06:12:37;;;;;;;6.03;5.43;;;;;;;;;;5076846;28;20547;-86
2023/09/28 06:15:08;;;;;;;12.53;5.83;;;;;;;;;;5075939;28;20243;-87
2023/09/28 06:17:36;;;;;;;8.23;5.27;;;;;;;;;;5076237;28;20729;-87
2023/09/28 06:20:05;;;;;;;7.73;5.60;;;;;;;;;;5075950;28;20241;-87
2023/09/28 06:22:33;;;;;;;10.70;5.70;;;;;;;;;;5079960;28;20216;-86
2023/09/28 06:25:00;;;;;;;5.60;5.10;;;;;;;;;;5076742;28;20237;-86
2023/09/28 06:27:28;;;;;;;7.03;6.33;;;;;;;;;;5077287;28;20270;-86
2023/09/28 06:29:56;;;;;;;6.93;5.30;;;;;;;;;;5076599;28;20928;-86
2023/09/28 06:32:24;;;;;;;7.37;6.20;;;;;;;;;;5076002;28;20209;-87
2023/09/28 06:34:51;;;;;;;6.90;5.50;;;;;;;;;;5075427;28;20223;-87
2023/09/28 06:37:18;;;;;;;10.13;5.80;;;;;;;;;;5075810;28;20212;-86
2023/09/28 06:39:45;;;;;;;7.67;5.77;;;;;;;;;;5075255;28;20237;-86
2023/09/28 06:42:12;;;;;;;8.83;5.87;;;;;;;;;;5075730;28;20205;-87
2023/09/28 06:44:39;;;;;;;9.30;6.40;;;;;;;;;;5074446;28;20233;-87
2023/09/28 06:47:07;;;;;;;8.30;6.40;;;;;;;;;;5078102;28;20206;-87
2023/09/28 06:49:36;;;;;;;10.23;6.73;;;;;;;;;;5076152;28;20241;-87
2023/09/28 06:52:03;;;;;;;10.03;7.00;;;;;;;;;;5079378;28;20209;-87
2023/09/28 06:54:32;;;;;;;9.03;7.07;;;;;;;;;;5077134;28;20232;-85
2023/09/28 06:57:00;;;;;;;7.27;6.30;;;;;;;;;;5075546;28;20663;-85
2023/09/28 06:59:28;;;;;;;8.63;7.33;;;;;;;;;;5075088;28;20237;-87
2023/09/28 07:01:55;;;;;;;11.10;7.03;;;;;;;;;;5090957;28;20250;-87
2023/09/28 07:04:23;;;;;;;8.23;7.27;;;;;;;;;;5095614;28;20237;-87
2023/09/28 07:06:51;;;;;;;9.33;7.17;;;;;;;;;;5095648;28;20204;-87
2023/09/28 07:09:18;;;;;;;11.43;8.17;;;;;;;;;;5095774;28;20244;-85
2023/09/28 07:11:46;;;;;;;10.57;7.67;;;;;;;;;;5098089;28;20212;-85
2023/09/28 07:14:13;;;;;;;12.57;8.10;;;;;;;;;;5096904;28;20597;-85
2023/09/28 07:16:40;;;;;;;13.73;8.20;;;;;;;;;;5097137;28;20207;-88
2023/09/28 07:19:07;;;;;;;10.33;8.30;;;;;;;;;;5097321;28;20220;-89
2023/09/28 07:21:34;;;;;;;10.60;8.60;;;;;;;;;;5097837;28;20204;-88
2023/09/28 07:24:04;;;;;;;12.80;8.57;;;;;;;;;;5096134;28;20228;-87
2023/09/28 07:26:32;;;;;;;11.50;8.37;;;;;;;;;;5096482;28;20207;-87
2023/09/28 07:29:00;;;;;;;11.77;8.13;;;;;;;;;;5095310;28;20240;-87
2023/09/28 07:31:27;;;;;;;10.33;9.23;;;;;;;;;;5095652;28;20666;-86
2023/09/28 07:33:54;;;;;;;13.23;8.83;;;;;;;;;;5095291;28;20207;-85
2023/09/28 07:36:22;;;;;;;10.57;8.93;;;;;;;;;;5095640;28;20205;-87
2023/09/28 07:38:50;;;;;;;11.47;8.70;;;;;;;;;;5095270;28;20203;-86
2023/09/28 07:41:18;;;;;;;12.20;8.77;;;;;;;;;;5095731;28;20225;-86
2023/09/28 07:43:45;;;;;;;11.27;9.70;;;;;;;;;;5095222;28;20208;-85
2023/09/28 07:46:13;;;;;;;13.10;9.87;;;;;;;;;;5094789;28;20216;-86
2023/09/28 07:48:40;;;;;;;12.17;8.37;;;;;;;;;;5093455;28;20670;-87
2023/09/28 07:51:07;;;;;;;13.47;8.47;;;;;;;;;;5117000;22;20224;-84
2023/09/28 07:53:34;;;;;;;10.50;8.73;;;;;;;;;;5092583;28;20636;-84
2023/09/28 07:56:01;;;;;;;11.43;7.57;;;;;;;;;;5091710;28;20670;-83
2023/09/28 07:58:30;;;;;;;11.70;7.90;;;;;;;;;;5092197;28;20670;-84
2023/09/28 08:00:57;;;;;;;10.33;7.47;;;;;;;;;;5091302;28;20685;-83
2023/09/28 08:03:24;;;;;;;8.33;7.00;;;;;;;;;;5091948;28;20201;-83
2023/09/28 08:05:53;;;;;;;8.13;6.77;;;;;;;;;;5091320;28;20228;-84
2023/09/28 08:08:20;;;;;;;7.37;6.53;;;;;;;;;;5084292;28;20224;-84
2023/09/28 08:10:48;;;;;;;8.13;6.70;;;;;;;;;;5091469;28;20236;-84
2023/09/28 08:13:16;;;;;;;8.40;6.60;;;;;;;;;;5092081;28;20197;-85
2023/09/28 08:15:45;;;;;;;7.70;6.57;;;;;;;;;;5091771;28;20252;-85
2023/09/28 08:18:13;;;;;;;7.00;5.97;;;;;;;;;;5092255;28;20205;-84
2023/09/28 08:20:40;;;;;;;7.27;5.60;;;;;;;;;;5091444;28;20228;-84
2023/09/28 08:23:07;;;;;;;6.23;5.60;;;;;;;;;;5093039;28;20204;-84
2023/09/28 08:25:35;;;;;;;6.03;5.40;;;;;;;;;;5093461;28;20514;-84
2023/09/28 08:28:02;;;;;;;6.83;5.40;;;;;;;;;;5093556;28;20224;-84
2023/09/28 08:30:29;;;;;;;6.83;5.13;;;;;;;;;;5093067;28;20239;-85
2023/09/28 08:32:57;;;;;;;6.63;5.63;;;;;;;;;;5091970;28;20208;-85
2023/09/28 08:35:24;;;;;;;5.97;5.13;;;;;;;;;;5091698;28;20597;-84
2023/09/28 08:37:52;;;;;;;6.27;5.23;;;;;;;;;;5093157;28;20213;-85
2023/09/28 08:40:20;;;;;;;7.27;4.50;;;;;;;;;;5074825;28;20228;-84
2023/09/28 08:42:48;;;;;;;4.95;4.45;;;;;;;;;;5092323;28;20213;-84
2023/09/28 08:45:16;;;;;;;5.95;4.30;;;;;;;;;;5091198;28;20718;-83
2023/09/28 08:47:47;;;;;;;4.88;4.45;;;;;;;;;;5091540;28;20209;-84
2023/09/28 08:50:19;;;;;;;6.70;4.60;;;;;;;;;;5090893;28;20305;-84
2023/09/28 08:52:47;;;;;;;6.07;4.47;;;;;;;;;;5091808;28;20205;-84
2023/09/28 08:55:15;;;;;;;4.68;4.00;;;;;;;;;;5090938;28;20232;-84
2023/09/28 08:57:43;;;;;;;5.25;4.60;;;;;;;;;;5091748;28;20288;-84
2023/09/28 09:00:13;;;;;;;5.65;4.13;;;;;;;;;;5091066;28;20228;-84
2023/09/28 09:02:42;;;;;;;6.43;4.63;;;;;;;;;;5095436;28;20224;-84
2023/09/28 09:05:11;;;;;;;4.38;3.97;;;;;;;;;;5094732;28;20231;-84
2023/09/28 09:07:40;;;;;;;6.57;3.80;;;;;;;;;;5095447;28;20211;-85
2023/09/28 09:10:08;;;;;;;3.90;3.50;;;;;;;;;;5094230;28;20235;-84
2023/09/28 09:12:35;;;;;;;5.10;3.70;;;;;;;;;;5095294;28;20585;-84
2023/09/28 09:15:03;;;;;;;7.80;3.95;;;;;;;;;;5094604;28;20705;-85
2023/09/28 09:17:33;;;;;;;4.60;4.10;;;;;;;;;;5095151;28;20211;-84
2023/09/28 09:20:00;;;;;;;3.97;3.65;;;;;;;;;;5094257;28;20229;-85
2023/09/28 09:22:28;;;;;;;4.47;3.58;;;;;;;;;;5095150;28;20205;-85
2023/09/28 09:24:57;;;;;;;4.03;3.67;;;;;;;;;;5094801;28;20233;-85
2023/09/28 09:27:28;;;;;;;4.30;3.58;;;;;;;;;;5095029;28;20204;-85
2023/09/28 09:29:57;;;;;;;3.88;3.47;;;;;;;;;;5094390;28;20248;-85
2023/09/28 09:32:25;;;;;;;3.65;3.15;;;;;;;;;;5101837;28;20591;-84
2023/09/28 09:34:52;;;;;;;3.88;3.45;;;;;;;;;;5094480;28;20229;-85
2023/09/28 09:37:20;;;;;;;4.38;3.55;;;;;;;;;;5094764;28;20208;-85
2023/09/28 09:39:47;;;;;;;3.28;2.97;;;;;;;;;;5094003;28;20285;-85
2023/09/28 09:42:25;;;;;;;4.20;3.00;;;;;;;;;;5094526;28;20713;-85
2023/09/28 09:44:53;;;;;;;4.03;3.10;;;;;;;;;;5095180;28;20278;-85
2023/09/28 09:47:20;;;;;;;4.57;3.13;;;;;;;;;;5094849;28;20233;-85
2023/09/28 09:49:48;;;;;;;4.93;3.13;;;;;;;;;;5094247;28;20267;-85
2023/09/28 09:52:16;;;;;;;2.97;2.75;;;;;;;;;;5094514;28;20607;-85
2023/09/28 09:54:44;;;;;;;2.72;2.53;;;;;;;;;;5094425;28;20229;-85
2023/09/28 09:57:14;;;;;;;3.85;2.70;;;;;;;;;;5095484;28;20205;-85
2023/09/28 09:59:46;;;;;;;3.90;2.67;;;;;;;;;;5094519;28;20233;-85
2023/09/28 10:02:17;;;;;;;3.40;2.40;;;;;;;;;;5094156;28;20569;-85
2023/09/28 10:04:45;;;;;;;3.08;2.70;;;;;;;;;;5093869;28;20239;-85
2023/09/28 10:07:12;;;;;;;2.67;2.33;;;;;;;;;;5094160;28;20220;-86
2023/09/28 10:09:41;;;;;;;4.15;2.65;;;;;;;;;;5093819;28;20307;-85
2023/09/28 10:12:08;;;;;;;3.28;2.85;;;;;;;;;;5094039;28;20229;-86
2023/09/28 10:14:36;;;;;;;2.80;2.60;;;;;;;;;;5094434;28;20229;-88
2023/09/28 10:17:05;;;;;;;2.53;2.10;;;;;;;;;;5094805;28;20575;-85
2023/09/28 10:19:32;;;;;;;3.38;2.17;;;;;;;;;;5094256;28;20228;-87
2023/09/28 10:22:00;;;;;;;3.00;2.25;;;;;;;;;;5114678;28;20263;-86
2023/09/28 10:24:30;;;;;;;2.75;2.45;;;;;;;;;;5114395;28;20227;-86
2023/09/28 10:26:57;;;;;;;3.33;2.15;;;;;;;;;;5114930;28;20200;-87
2023/09/28 10:29:28;;;;;;;2.90;2.30;;;;;;;;;;5115449;28;20231;-87
2023/09/28 10:31:56;;;;;;;2.63;2.40;;;;;;;;;;5115474;28;20220;-86
2023/09/28 10:34:26;;;;;;;1.95;1.83;;;;;;;;;;5114992;28;20240;-87
2023/09/28 10:37:13;;;;;;;2.72;2.22;;;;;;;;;;5118895;28;20211;-86
2023/09/28 10:39:42;;;;;;;3.38;2.45;;;;;;;;;;5095291;28;20243;-86
2023/09/28 10:42:14;;;;;;;4.13;2.50;;;;;;;;;;5096385;28;20231;-86
2023/09/28 10:44:47;;;;;;;2.38;2.17;;;;;;;;;;5096057;28;20237;-87
2023/09/28 10:47:14;;;;;;;2.47;2.13;;;;;;;;;;5094827;28;20185;-86
2023/09/28 10:49:42;;;;;;;2.50;2.30;;;;;;;;;;5093605;28;20315;-86
2023/09/28 10:52:10;;;;;;;3.42;2.40;;;;;;;;;;5094886;28;20233;-86
2023/09/28 10:54:37;;;;;;;2.47;2.22;;;;;;;;;;5094045;28;20432;-86
2023/09/28 10:57:04;;;;;;;3.03;2.42;;;;;;;;;;5093801;28;20662;-86
2023/09/28 10:59:32;;;;;;;6.13;2.50;;;;;;;;;;5093324;28;20240;-87
2023/09/28 11:01:59;;;;;;;4.80;2.40;;;;;;;;;;5093357;28;20223;-87
2023/09/28 11:04:28;;;;;;;2.50;2.20;;;;;;;;;;5093001;28;20236;-87
2023/09/28 11:06:57;;;;;;;2.75;2.40;;;;;;;;;;5094298;28;20576;-87
2023/09/28 11:09:24;;;;;;;2.40;2.20;;;;;;;;;;5092997;28;20768;-86
2023/09/28 11:11:52;;;;;;;3.90;2.58;;;;;;;;;;5093517;28;20308;-88
2023/09/28 11:14:20;;;;;;;5.10;2.20;;;;;;;;;;5092814;28;20250;-87
2023/09/28 11:16:49;;;;;;;2.20;1.95;;;;;;;;;;5093293;28;20266;-87
2023/09/28 11:19:16;;;;;;;2.65;2.20;;;;;;;;;;5092682;28;20312;-87
2023/09/28 11:21:43;;;;;;;3.95;2.40;;;;;;;;;;5093124;28;20220;-87
2023/09/28 11:24:12;;;;;;;2.47;2.05;;;;;;;;;;5092577;28;20228;-86
2023/09/28 11:26:40;;;;;;;2.17;1.98;;;;;;;;;;5093362;28;20670;-87
2023/09/28 11:29:07;;;;;;;2.20;2.00;;;;;;;;;;5092590;28;20243;-86
2023/09/28 11:31:35;;;;;;;2.05;1.75;;;;;;;;;;5094108;28;20225;-88
2023/09/28 11:34:03;;;;;;;2.33;2.05;;;;;;;;;;5092934;28;20317;-87
2023/09/28 11:36:31;;;;;;;2.25;2.03;;;;;;;;;;5092979;28;20201;-87
2023/09/28 11:38:58;;;;;;;2.30;2.10;;;;;;;;;;5092507;28;20227;-87
2023/09/28 11:41:27;;;;;;;3.13;2.20;;;;;;;;;;5092976;28;20315;-87
2023/09/28 11:43:56;;;;;;;2.20;2.00;;;;;;;;;;5092724;28;20201;-87
2023/09/28 11:46:24;;;;;;;1.95;1.75;;;;;;;;;;5092988;28;20196;-86
2023/09/28 11:49:03;;;;;;;2.05;1.85;;;;;;;;;;5092051;28;20209;-88
2023/09/28 11:51:31;;;;;;;3.13;2.05;;;;;;;;;;5092289;28;20763;-87
2023/09/28 11:53:58;;;;;;;2.67;2.35;;;;;;;;;;5092473;28;20593;-85
2023/09/28 11:56:27;;;;;;;2.83;2.20;;;;;;;;;;5092556;28;20213;-85
2023/09/28 11:58:54;;;;;;;2.45;2.20;;;;;;;;;;5092158;28;20205;-85
2023/09/28 12:01:21;;;;;;;2.47;2.20;;;;;;;;;;5092890;28;20254;-85
2023/09/28 12:03:49;;;;;;;2.83;1.90;;;;;;;;;;5092061;28;20911;-85
2023/09/28 12:06:16;;;;;;;2.20;2.00;;;;;;;;;;5092282;28;20205;-85
2023/09/28 12:08:43;;;;;;;2.05;1.95;;;;;;;;;;5091878;28;20204;-86
2023/09/28 12:11:10;;;;;;;2.47;2.28;;;;;;;;;;5092029;28;20237;-85
2023/09/28 12:13:38;;;;;;;2.42;2.17;;;;;;;;;;5091710;28;20213;-86
2023/09/28 12:16:05;;;;;;;3.38;1.92;;;;;;;;;;5092226;28;20213;-85
2023/09/28 12:18:32;;;;;;;2.92;2.28;;;;;;;;;;5092228;28;20212;-85
2023/09/28 12:20:59;;;;;;;2.65;1.98;;;;;;;;;;5091350;28;20735;-84
2023/09/28 12:23:27;;;;;;;2.28;1.88;;;;;;;;;;5091871;28;20209;-85
2023/09/28 12:25:55;;;;;;;3.78;2.25;;;;;;;;;;5091675;28;20232;-85
2023/09/28 12:28:22;;;;;;;3.40;2.25;;;;;;;;;;5092274;28;20556;-85
2023/09/28 12:30:51;;;;;;;2.08;1.90;;;;;;;;;;5091576;28;20233;-85
2023/09/28 12:33:18;;;;;;;2.75;1.92;;;;;;;;;;5092270;28;20250;-84
2023/09/28 12:35:47;;;;;;;2.97;2.10;;;;;;;;;;5092846;28;20232;-85
2023/09/28 12:38:14;;;;;;;3.90;2.33;;;;;;;;;;5095818;28;20258;-85
2023/09/28 12:40:41;;;;;;;2.38;2.08;;;;;;;;;;5095422;28;20237;-85
2023/09/28 12:43:09;;;;;;;1.85;1.70;;;;;;;;;;5095864;28;20197;-84
2023/09/28 12:45:37;;;;;;;2.35;2.08;;;;;;;;;;5095652;28;20252;-84
2023/09/28 12:48:07;;;;;;;2.75;2.20;;;;;;;;;;5096105;28;20213;-85
2023/09/28 12:50:34;;;;;;;2.33;2.10;;;;;;;;;;5094918;28;20236;-85
2023/09/28 12:53:01;;;;;;;2.25;2.03;;;;;;;;;;5095806;28;20210;-84
2023/09/28 12:55:29;;;;;;;4.07;2.17;;;;;;;;;;5095058;28;20236;-85
2023/09/28 12:57:56;;;;;;;2.20;1.95;;;;;;;;;;5095924;28;20209;-85
2023/09/28 13:00:25;;;;;;;4.28;1.90;;;;;;;;;;5094985;28;20232;-87
2023/09/28 13:02:52;;;;;;;2.78;1.98;;;;;;;;;;5095844;28;20204;-86
2023/09/28 13:05:21;;;;;;;2.10;1.73;;;;;;;;;;5094965;28;20237;-86
2023/09/28 13:07:49;;;;;;;2.88;1.90;;;;;;;;;;5095265;28;20745;-86
2023/09/28 13:10:16;;;;;;;1.95;1.80;;;;;;;;;;5094644;28;20274;-87
2023/09/28 13:12:46;;;;;;;1.92;1.73;;;;;;;;;;5095606;28;20200;-84
2023/09/28 13:15:14;;;;;;;2.25;2.00;;;;;;;;;;5094597;28;20702;-85
2023/09/28 13:17:42;;;;;;;2.85;2.00;;;;;;;;;;5095378;28;20193;-84
2023/09/28 13:20:11;;;;;;;2.50;2.10;;;;;;;;;;5094520;28;20602;-84
2023/09/28 13:22:39;;;;;;;2.33;2.13;;;;;;;;;;5095123;28;20690;-84
2023/09/28 13:25:08;;;;;;;3.53;1.92;;;;;;;;;;5094680;28;20228;-85
2023/09/28 13:27:37;;;;;;;1.88;1.75;;;;;;;;;;5095312;28;20615;-85
2023/09/28 13:30:08;;;;;;;3.55;2.10;;;;;;;;;;5094508;28;20621;-84
2023/09/28 13:32:35;;;;;;;1.60;1.50;;;;;;;;;;5095291;28;20619;-84
2023/09/28 13:35:05;;;;;;;2.38;1.80;;;;;;;;;;5094784;28;20229;-84
2023/09/28 13:37:33;;;;;;;3.83;1.77;;;;;;;;;;5095302;28;20220;-84
2023/09/28 13:40:04;;;;;;;1.80;1.60;;;;;;;;;;5094350;28;20265;-84
2023/09/28 13:42:31;;;;;;;2.83;2.33;;;;;;;;;;5095250;28;20203;-85
2023/09/28 13:44:59;;;;;;;2.95;1.90;;;;;;;;;;5094432;28;20232;-84
2023/09/28 13:47:27;;;;;;;3.83;1.90;;;;;;;;;;5093635;28;20201;-84
2023/09/28 13:49:55;;;;;;;1.90;1.70;;;;;;;;;;5094281;28;20239;-85
2023/09/28 13:52:22;;;;;;;2.03;1.70;;;;;;;;;;5111026;22;20296;-85
2023/09/28 13:54:49;;;;;;;2.00;1.75;;;;;;;;;;5096628;28;20232;-85
2023/09/28 13:57:18;;;;;;;1.90;1.80;;;;;;;;;;5096482;28;20291;-86
2023/09/28 13:59:45;;;;;;;2.25;1.77;;;;;;;;;;5094975;28;20221;-86
2023/09/28 14:02:13;;;;;;;2.72;1.83;;;;;;;;;;5095281;28;20235;-85
2023/09/28 14:04:41;;;;;;;1.70;1.60;;;;;;;;;;5095016;28;20239;-84
2023/09/28 14:07:08;;;;;;;3.17;1.55;;;;;;;;;;5096571;28;20367;-85
2023/09/28 14:09:35;;;;;;;2.20;1.90;;;;;;;;;;5095891;28;20260;-86
2023/09/28 14:12:02;;;;;;;3.35;1.77;;;;;;;;;;5099143;28;20220;-87
2023/09/28 14:14:32;;;;;;;1.70;1.60;;;;;;;;;;5097244;28;20233;-86
2023/09/28 14:17:02;;;;;;;1.70;1.60;;;;;;;;;;5096926;28;20806;-86
2023/09/28 14:19:29;;;;;;;1.80;1.58;;;;;;;;;;5096464;28;20282;-88
2023/09/28 14:21:57;;;;;;;2.20;1.55;;;;;;;;;;5098929;28;20232;-87
2023/09/28 14:24:27;;;;;;;1.75;1.60;;;;;;;;;;5097009;28;20315;-85
2023/09/28 14:26:54;;;;;;;1.77;1.67;;;;;;;;;;5097328;28;20201;-85
2023/09/28 14:29:21;;;;;;;1.67;1.58;;;;;;;;;;5096340;28;20607;-87
2023/09/28 14:31:49;;;;;;;2.38;1.98;;;;;;;;;;5096512;28;20228;-85
2023/09/28 14:34:16;;;;;;;1.50;1.40;;;;;;;;;;5096597;28;20236;-86
2023/09/28 14:36:43;;;;;;;1.85;1.75;;;;;;;;;;5097297;28;20211;-85
2023/09/28 14:39:11;;;;;;;2.35;1.70;;;;;;;;;;5096960;28;20230;-86
2023/09/28 14:41:39;;;;;;;3.08;1.80;;;;;;;;;;5096903;28;20571;-87
2023/09/28 14:44:06;;;;;;;2.05;1.80;;;;;;;;;;5095710;28;20625;-86